AirNav   Air Wisconsin pilot careers
 
 908 users online  

9B8 Salmon River Airfield
Marlborough, Connecticut, USA

GOING TO MARLBOROUGH?


FAA INFORMATION EFFECTIVE 01 FEBRUARY 2018

Location

FAA Identifier: 9B8
Lat/Long: 41-35-22.3560N / 072-26-32.3080W
41-35.372600N / 072-26.538467W
41.5895433 / -72.4423078
(estimated)
Elevation: 540 ft. / 165 m (estimated)
Variation: 14W (1985)
From city: 3 miles S of MARLBOROUGH, CT
Time zone: UTC -5 (UTC -4 during Daylight Saving Time)
Zip code: 06447

Airport Operations

Airport use: Open to the public
Activation date: 04/1962
Control tower: no
ARTCC: BOSTON CENTER
FSS: BRIDGEPORT FLIGHT SERVICE STATION
NOTAMs facility: BDR (NOTAM-D service available)
Attendance: IREG
ARPT CLSD SS-SR.
Wind indicator: yes
Segmented circle: no

Airport Communications

CTAF: 122.9
WX AWOS-3 at SNC (13 nm S): 118.325 (860-526-1551)
WX ASOS at HFD (13 nm NW): PHONE 860-527-5837
WX ASOS at IJD (15 nm NE): 133.675 (860-456-8839)
WX ASOS at MMK (18 nm W): 134.925 (203-639-9405)

Nearby radio navigation aids

VOR radial/distance  VOR name  Freq  Var
HFDr136/5.6HARTFORD VOR/DME114.9013W
ORWr290/20.0NORWICH VOR/DME110.0014W
MADr047/20.0MADISON VOR/DME110.4013W
GONr326/23.4GROTON VOR/DME110.8514W
HVNr058/28.0NEW HAVEN VOR/DME109.8013W
PUTr245/34.6PUTNAM VOR/DME117.4014W
BAFr174/36.5BARNES VORTAC113.0014W
CEFr188/36.7WESTOVER VORTAC114.0014W

 
NDB name  Hdg/Dist  Freq  Var  ID
CLERA082/32.636214WJWE .--- .-- .

Airport Services

Parking: tiedowns
Airframe service: NONE
Powerplant service: NONE

Runway Information

Runway 17/35

Dimensions: 2000 x 60 ft. / 610 x 18 m
Surface: turf, in good condition
RUNWAY 17  RUNWAY 35
Traffic pattern: rightleft
Obstructions: 46 ft. trees, 486 ft. from runway, 250 ft. left of centerline, 10:1 slope to clear68 ft. trees, 834 ft. from runway, 209 ft. right of centerline, 12:1 slope to clear

Airport Ownership and Management from official FAA records

Ownership: Privately-owned
Owner: SALMON RIVER AIRFIELD ASSOC
44 BULLHILL RD
COLCHESTER, CT 06415
Phone 860-267-6562
Manager: MARK DITOMASSO
141 OGDEN ROAD
COLCHESTER, CT 06415
Phone (860) 883-4272

Airport Operational Statistics

Aircraft based on the field: 9
Single engine airplanes: 7
Helicopters: 2
    
Aircraft operations: avg 67/month *
62% local general aviation
38% transient general aviation
* for 12-month period ending 31 August 2014

Additional Remarks

ARPT CLSD DEC 15 - APR 30.
PAE INVOF RY'S AND TWYS.
ALL SURFACES , RY & TWY, WORK IN PROGRESS, MAINTENANCE.

Instrument Procedures

There are no published instrument procedures at 9B8.

Some nearby airports with instrument procedures:

KSNC - Chester Airport (13 nm S)
KHFD - Hartford-Brainard Airport (13 nm NW)
KIJD - Windham Airport (15 nm NE)
KMMK - Meriden Markham Municipal Airport (18 nm W)
4B8 - Robertson Field Airport (20 nm W)
 
Loc | Ops | Rwys | IFR | FBO | Links
Com | Nav | Svcs | Stats | Notes

Silver City Flying Club
 
Area around 9B8 (Salmon River Airfield)
 
Road maps at: MapQuest Bing Google
 
Aerial photo
WARNING: Photo may not be current or correct
Aerial photo of 9B8 (Salmon River Airfield)
Photo taken 18-Sep-2005

Do you have a better or more recent aerial photo of Salmon River Airfield that you would like to share? If so, please send us your photo.

 
Sectional chart

 
Airport distance calculator
Flying to Salmon River Airfield? Find the distance to fly.

From to 9B8

Sunrise and sunset
Times for 17-Feb-2018
 Local
(UTC-5)
 Zulu
(UTC)
Morning civil twilight06:1511:15
Sunrise06:4311:43
Sunset17:2422:24
Evening civil twilight17:5322:53

Current date and time
Zulu (UTC)  18-Feb-2018 00:42:01
Local (UTC-5)  17-Feb-2018 19:42:01
 
METAR
KSNC 
13nm S 
180015Z AUTO 12004KT 1 1/2SM -SN BKN002 OVC010 M01/M02 A3021 RMK AO2
KHFD 
13nm NW 
180013Z 16004KT 3/4SM -SN BR VV017 M01/M02 A3024 RMK AO2 P0000 T10111022
KIJD 
15nm NE 
180014Z AUTO 16004KT 2 1/2SM -SN OVC028 M01/M04 A3024 RMK AO2 SNB05 P0000 T10061044 TSNO
KMMK 
18nm W 
180020Z AUTO 00000KT 3/4SM -SN BR VV011 M01/M02 A3022 RMK AO2 P0003 T10111017
KBDL 
23nm NW 
180008Z 17010KT 2SM -SN BR OVC020 M01/M03 A3023 RMK AO2 SFC VIS 2 1/2 P0000 T10111033
KGON 
23nm SE 
172356Z 12006KT 1 1/4SM -SN BR BKN013 OVC023 01/M01 A3025 RMK AO2 SNB37 SLP243 P0000 60000 T00111006 10028 20011 56034
TAF
KBDL 
23nm NW 
172051Z 1721/1824 16011KT P6SM BKN180 OVC210 FM180100 16005KT 1SM -SN OVC035 FM180300 VRB03KT 1/4SM +SN OVC010 FM181000 31004KT P6SM OVC015 FM181100 31005KT P6SM BKN050 FM181500 32011G22KT P6SM FEW250 FM181700 32009KT P6SM FEW250
KGON 
23nm SE 
172214Z 1722/1818 16009KT P6SM BKN040 TEMPO 1723/1724 3SM -SNRA BKN020 FM180000 14006KT 1 1/2SM -SN FEW005 BKN015 OVC040 TEMPO 1800/1803 3SM -RASN BKN015 FM180300 11005KT 1/2SM SN OVC004 FM180700 04005KT 2SM -SN OVC006 FM181100 34007KT P6SM SCT006 OVC040 FM181400 32012G20KT P6SM FEW035
NOTAMs
Click for the latest NOTAMs
NOTAMs are issued by the DoD/FAA and will open in a separate window not controlled by AirNav.

 

 
 

Would you like to see your business listed on this page?

 If your business provides an interesting product or service to pilots, flight crews, aircraft, or users of the Salmon River Airfield, you should consider listing it here.  To start the listing process, click on the button below
 
Add a business
 

Other Pages about Salmon River Airfield

Update a link
 
Copyright © AirNav, LLC. All rights reserved. Privacy Policy  Contact